首页
METAR-TAF:

METAR-TAF

机场 :

阿爾及爾, 阿尔及利亚

阿尔及尔胡阿里·布迈丁机场

纬度: 36-43N, 经度: 003-15E, 海拔: 25米

当前天气观测

该预报发布于25分钟前的06:30 UTC
风速7节,风向东转东北,在北转东北东转东南之间变化
温度 18°C
湿度 88%
气压 1013 hPa
能見度: 8000
少量云层高于2000英尺, 塔状积云.
散云层高于5300英尺
多云层高于8000英尺

METAR: DAAG 250630Z 07007KT 030V110 8000 FEW020TCU SCT053 BKN080 18/16 Q1013

时间: 07:55 (06:55 UTC)

预报

该预报发布于1小时和55分钟前的05:00 UTC
预报有效从25日的 06点(UTC)到 26日的 06点(UTC)
风速12节,风向东北
能見度: 8000
少量云层高于2600英尺
散云层高于10000英尺
短暂存在
从 25日的 06点(UTC)到 25日的 12点(UTC)
能見度: 5000
少量云层高于2300英尺, 积雨云.
小雨
几率 40% :
短暂存在
从 25日的 12点(UTC)到 25日的 17点(UTC)
风速15节,风向东北,有时为25节阵风
能見度: 3000
散云层高于2300英尺, 塔状积云.
少量云层高于2600英尺, 积雨云.
雷暴, 雨
成为
从 25日的 16点(UTC)到 25日的 19点(UTC)
风速2节,风向多变

TAF: DAAG 250500Z 2506/2606 04012KT 8000 FEW026 SCT100 TEMPO 2506/2512 5000 -RA FEW023CB PROB40 TEMPO 2512/2517 04015G25KT 3000 TSRA SCT023TCU FEW026CB BECMG 2516/2519 VRB02KT

超过4000个机场的气象观测和天气预报(METAR&TAF报告)。

可查询的气象台以黄色和红色小点在地图上表示。

将鼠标移到小点上方,可查看气象台名称。

然后点击查看天气观测和预报。

如需切换地图:点击带黑十字的绿色按钮放大地图;点击带横线的绿色按钮缩小地图;或者点击绿色箭头查看邻近地区的地图。


METAR-TAF: